createdAt,value
2022-12-19T00:01:19.006Z,98117.56
2022-12-19T00:03:56.027Z,98114.03
2022-12-19T00:06:25.040Z,98115.05
2022-12-19T00:08:54.960Z,98113.11
2022-12-19T00:11:24.484Z,98103.80
2022-12-19T00:13:52.683Z,98101.95
2022-12-19T00:16:24.386Z,98106.91
2022-12-19T00:18:55.244Z,98110.48
2022-12-19T00:21:27.195Z,98106.42
2022-12-19T00:23:56.304Z,98105.07
2022-12-19T00:26:25.760Z,98101.89
2022-12-19T00:29:00.145Z,98097.63
2022-12-19T00:31:32.060Z,98105.19
2022-12-19T00:34:00.689Z,98101.42
2022-12-19T00:36:31.843Z,98099.95
2022-12-19T00:39:02.530Z,98098.38
2022-12-19T00:41:41.494Z,98104.31
2022-12-19T00:44:15.971Z,98100.09
2022-12-19T00:46:47.824Z,98101.27
2022-12-19T00:49:21.834Z,98096.59
2022-12-19T00:51:50.127Z,98093.50
2022-12-19T00:54:18.165Z,98093.31
2022-12-19T00:56:46.480Z,98092.15
2022-12-19T00:59:14.627Z,98082.20
2022-12-19T01:01:46.511Z,98081.14
2022-12-19T01:04:34.454Z,98080.09
2022-12-19T01:07:05.876Z,98071.36
2022-12-19T01:09:35.463Z,98066.91
2022-12-19T01:12:24.734Z,98061.80
2022-12-19T01:15:04.016Z,98062.12
2022-12-19T01:17:37.766Z,98057.75
2022-12-19T01:20:21.354Z,98056.42
2022-12-19T01:23:00.281Z,98050.36
2022-12-19T01:25:29.307Z,98047.34
2022-12-19T01:27:57.793Z,98047.52
2022-12-19T01:30:27.685Z,98048.14
2022-12-19T01:32:58.291Z,98039.59
2022-12-19T01:35:28.782Z,98042.58
2022-12-19T01:38:06.108Z,98034.83
2022-12-19T01:40:36.964Z,98035.52
2022-12-19T01:43:05.121Z,98031.13
2022-12-19T01:45:42.142Z,98024.95
2022-12-19T01:48:18.215Z,98023.42
2022-12-19T01:51:01.988Z,98022.53
2022-12-19T01:53:48.595Z,98018.68
2022-12-19T01:56:22.234Z,98015.02
2022-12-19T01:59:05.788Z,98010.20
2022-12-19T02:01:49.549Z,98003.46
2022-12-19T02:04:20.945Z,98000.54
2022-12-19T02:06:50.401Z,97999.66
2022-12-19T02:09:19.173Z,97999.59
2022-12-19T02:11:51.634Z,97995.23
2022-12-19T02:14:22.521Z,97991.25
2022-12-19T02:17:25.115Z,97986.08
2022-12-19T02:20:07.474Z,97985.05
2022-12-19T02:22:49.225Z,97982.16
2022-12-19T02:25:33.376Z,97977.77
2022-12-19T02:28:36.034Z,97976.77
2022-12-19T02:31:22.185Z,97974.02
2022-12-19T02:34:09.959Z,97968.89
2022-12-19T02:36:55.662Z,97961.95
2022-12-19T02:39:27.248Z,97953.10
2022-12-19T02:41:59.131Z,97955.95
2022-12-19T02:44:42.832Z,97960.71
2022-12-19T02:47:11.507Z,97959.14
2022-12-19T02:49:39.881Z,97953.86
2022-12-19T02:52:32.437Z,97952.66
2022-12-19T02:55:06.340Z,97948.85
2022-12-19T02:58:17.036Z,97947.02
2022-12-19T03:00:58.442Z,97946.75
2022-12-19T03:03:56.681Z,97941.34
2022-12-19T03:06:47.621Z,97941.90
2022-12-19T03:09:27.499Z,97938.39
2022-12-19T03:12:05.286Z,97935.95
2022-12-19T03:14:35.771Z,97931.21
2022-12-19T03:17:07.281Z,97925.47
2022-12-19T03:19:38.701Z,97927.34
2022-12-19T03:22:08.036Z,97931.75
2022-12-19T03:24:36.712Z,97931.47
2022-12-19T03:27:22.362Z,97930.27
2022-12-19T03:29:59.967Z,97934.55
2022-12-19T03:32:30.075Z,97938.05
2022-12-19T03:35:09.521Z,97937.81
2022-12-19T03:37:40.962Z,97936.68
2022-12-19T03:40:18.178Z,97940.98
2022-12-19T03:43:06.638Z,97939.42
2022-12-19T03:45:50.495Z,97941.98
2022-12-19T03:48:26.568Z,97943.33
2022-12-19T03:51:17.232Z,97941.79
2022-12-19T03:53:50.982Z,97948.81
2022-12-19T03:56:44.799Z,97949.69
2022-12-19T03:59:26.807Z,97946.10
2022-12-19T04:01:55.655Z,97945.16
2022-12-19T04:04:26.066Z,97944.29
2022-12-19T04:06:55.961Z,97939.47
2022-12-19T04:09:25.042Z,97940.60
2022-12-19T04:12:08.777Z,97940.18
2022-12-19T04:14:38.888Z,97934.69
2022-12-19T04:17:09.807Z,97931.09
2022-12-19T04:19:48.472Z,97930.88
2022-12-19T04:22:22.787Z,97924.64
2022-12-19T04:24:52.067Z,97921.40
2022-12-19T04:27:21.996Z,97920.02
2022-12-19T04:29:55.479Z,97919.98
2022-12-19T04:32:25.613Z,97913.06
2022-12-19T04:34:53.662Z,97905.62
2022-12-19T04:37:21.704Z,97906.61
2022-12-19T04:39:49.899Z,97905.83
2022-12-19T04:42:17.937Z,97905.19
2022-12-19T04:44:46.074Z,97898.54
2022-12-19T04:47:14.380Z,97899.45
2022-12-19T04:49:42.404Z,97896.58
2022-12-19T04:52:10.588Z,97900.92
2022-12-19T04:54:39.427Z,97900.72
2022-12-19T04:57:07.861Z,97893.48
2022-12-19T04:59:35.859Z,97883.77
2022-12-19T05:02:07.211Z,97880.88
2022-12-19T05:04:35.306Z,97878.58
2022-12-19T05:07:03.345Z,97881.23
2022-12-19T05:09:31.383Z,97881.33
2022-12-19T05:11:59.475Z,97879.23
2022-12-19T05:14:27.890Z,97879.52
2022-12-19T05:17:01.259Z,97881.77
2022-12-19T05:19:29.974Z,97880.17
2022-12-19T05:21:58.279Z,97873.20
2022-12-19T05:24:26.379Z,97870.59
2022-12-19T05:26:54.459Z,97873.56
2022-12-19T05:29:22.875Z,97873.31
2022-12-19T05:31:50.947Z,97871.77
2022-12-19T05:34:19.037Z,97869.75
2022-12-19T05:36:47.071Z,97867.64
2022-12-19T05:39:15.188Z,97871.21
2022-12-19T05:41:46.376Z,97875.52
2022-12-19T05:44:17.404Z,97874.02
2022-12-19T05:46:45.584Z,97874.60
2022-12-19T05:49:13.828Z,97870.54
2022-12-19T05:51:41.924Z,97870.70
2022-12-19T05:54:09.983Z,97872.11
2022-12-19T05:56:38.040Z,97870.21
2022-12-19T05:59:06.127Z,97860.78
2022-12-19T06:01:34.436Z,97863.69
2022-12-19T06:04:02.642Z,97864.98
2022-12-19T06:06:31.691Z,97863.28
2022-12-19T06:09:00.470Z,97862.98
2022-12-19T06:11:28.632Z,97858.88
2022-12-19T06:13:56.902Z,97857.83
2022-12-19T06:16:24.975Z,97857.44
2022-12-19T06:18:54.067Z,97853.61
2022-12-19T06:21:23.377Z,97851.08
2022-12-19T06:23:51.383Z,97848.46
2022-12-19T06:26:21.548Z,97849.77
2022-12-19T06:28:52.333Z,97853.23
2022-12-19T06:31:22.646Z,97854.26
2022-12-19T06:33:51.013Z,97855.02
2022-12-19T06:36:25.134Z,97849.26
2022-12-19T06:38:54.736Z,97853.85
2022-12-19T06:41:41.521Z,97855.40
2022-12-19T06:44:12.773Z,97854.66
2022-12-19T06:46:42.046Z,97856.06
2022-12-19T06:49:11.578Z,97849.26
2022-12-19T06:51:39.896Z,97847.55
2022-12-19T06:54:07.909Z,97852.78
2022-12-19T06:56:37.801Z,97847.08
2022-12-19T06:59:06.967Z,97836.49
2022-12-19T07:01:48.306Z,97837.96
2022-12-19T07:04:24.067Z,97840.32
2022-12-19T07:06:52.295Z,97841.89
2022-12-19T07:09:20.505Z,97841.33
2022-12-19T07:11:48.795Z,97836.06
2022-12-19T07:14:16.798Z,97837.51
2022-12-19T07:16:46.557Z,97843.02
2022-12-19T07:19:15.439Z,97852.99
2022-12-19T07:21:44.153Z,97848.70
2022-12-19T07:24:15.021Z,97843.06
2022-12-19T07:26:43.908Z,97849.06
2022-12-19T07:29:12.598Z,97848.09
2022-12-19T07:31:40.831Z,97846.02
2022-12-19T07:34:10.170Z,97842.76
2022-12-19T07:36:38.274Z,97841.76
2022-12-19T07:39:06.396Z,97849.08
2022-12-19T07:41:37.489Z,97850.77
2022-12-19T07:44:06.737Z,97845.68
2022-12-19T07:46:35.262Z,97846.58
2022-12-19T07:49:03.343Z,97839.54
2022-12-19T07:51:31.377Z,97834.65
2022-12-19T07:54:00.436Z,97834.44
2022-12-19T07:56:28.909Z,97834.38
2022-12-19T07:58:57.084Z,97833.92
2022-12-19T08:01:25.249Z,97833.02
2022-12-19T08:03:58.192Z,97831.86
2022-12-19T08:06:27.532Z,97830.07
2022-12-19T08:08:57.285Z,97831.20
2022-12-19T08:11:29.860Z,97825.55
2022-12-19T08:13:58.103Z,97819.13
2022-12-19T08:16:28.164Z,97817.19
2022-12-19T08:18:56.384Z,97818.67
2022-12-19T08:21:25.440Z,97816.58
2022-12-19T08:23:53.595Z,97813.60
2022-12-19T08:26:26.325Z,97810.26
2022-12-19T08:28:57.139Z,97808.62
2022-12-19T08:31:27.265Z,97806.35
2022-12-19T08:33:56.981Z,97804.23
2022-12-19T08:36:25.586Z,97800.89
2022-12-19T08:38:54.524Z,97796.73
2022-12-19T08:41:23.380Z,97794.77
2022-12-19T08:43:53.378Z,97795.02
2022-12-19T08:46:22.568Z,97787.79
2022-12-19T08:48:50.920Z,97786.84
2022-12-19T08:51:19.969Z,97786.11
2022-12-19T08:53:48.792Z,97784.62
2022-12-19T08:56:19.473Z,97781.58
2022-12-19T08:58:48.634Z,97780.77
2022-12-19T09:01:23.994Z,97776.06
2022-12-19T09:04:18.293Z,97779.29
2022-12-19T09:06:43.404Z,97781.49
2022-12-19T09:09:11.609Z,97786.96
2022-12-19T09:11:47.886Z,97783.31
2022-12-19T09:14:20.943Z,97780.83
2022-12-19T09:16:49.789Z,97786.80
2022-12-19T09:19:18.203Z,97781.42
2022-12-19T09:21:46.289Z,97780.77
2022-12-19T09:24:15.269Z,97780.68
2022-12-19T09:26:44.700Z,97779.86
2022-12-19T09:29:20.487Z,97766.70
2022-12-19T09:31:55.820Z,97760.02
2022-12-19T09:34:38.317Z,97748.23
2022-12-19T09:37:09.187Z,97737.80
2022-12-19T09:39:43.731Z,97730.59
2022-12-19T09:42:20.963Z,97732.27
2022-12-19T09:45:01.677Z,97738.52
2022-12-19T09:47:33.149Z,97733.26
2022-12-19T09:50:02.630Z,97732.04
2022-12-19T09:52:41.212Z,97725.78
2022-12-19T09:55:20.550Z,97731.02
2022-12-19T09:57:51.720Z,97736.77
2022-12-19T10:00:22.467Z,97739.67
2022-12-19T10:03:01.512Z,97739.37
2022-12-19T10:06:52.540Z,97739.64
2022-12-19T10:08:45.656Z,97735.61
2022-12-19T10:12:38.548Z,97725.65
2022-12-19T10:15:14.938Z,97717.72
2022-12-19T10:18:05.479Z,97710.30
2022-12-19T10:20:40.923Z,97709.50
2022-12-19T10:23:18.076Z,97701.43
2022-12-19T10:26:00.429Z,97703.66
2022-12-19T10:28:50.249Z,97706.90
2022-12-19T10:31:27.350Z,97703.19
2022-12-19T10:34:07.096Z,97699.16
2022-12-19T10:39:51.566Z,97681.27
2022-12-19T10:42:37.743Z,97680.28
2022-12-19T10:45:14.578Z,97683.85
2022-12-19T10:47:42.790Z,97680.84
2022-12-19T10:50:23.140Z,97678.46
2022-12-19T10:53:03.400Z,97672.36
2022-12-19T10:55:45.669Z,97672.54
2022-12-19T10:58:22.888Z,97669.98
2022-12-19T11:01:12.166Z,97661.00
2022-12-19T11:03:43.729Z,97655.05
2022-12-19T11:06:43.893Z,97650.14
2022-12-19T11:09:22.855Z,97645.88
2022-12-19T11:13:20.132Z,97638.61
2022-12-19T11:20:52.910Z,97630.28
2022-12-19T11:27:48.698Z,97625.01
2022-12-19T11:30:05.876Z,97619.03
2022-12-19T11:30:38.645Z,97614.41
2022-12-19T11:30:46.767Z,97622.40
2022-12-19T11:31:48.175Z,97617.81
2022-12-19T11:33:21.194Z,97622.21
2022-12-19T11:35:52.989Z,97614.08
2022-12-19T11:38:48.808Z,97605.56
2022-12-19T11:41:25.650Z,97598.71
2022-12-19T11:44:02.229Z,97600.38
2022-12-19T11:46:52.852Z,97596.63
2022-12-19T11:49:27.162Z,97599.70
2022-12-19T11:51:56.787Z,97594.92
2022-12-19T11:54:38.148Z,97593.56
2022-12-19T11:57:11.784Z,97586.06
2022-12-19T11:59:41.741Z,97578.42
2022-12-19T12:02:40.344Z,97576.55
2022-12-19T12:05:24.294Z,97579.80
2022-12-19T12:10:22.938Z,97577.42
2022-12-19T12:17:32.356Z,97575.39
2022-12-19T12:23:46.594Z,97573.88
2022-12-19T12:29:14.503Z,97573.41
2022-12-19T12:31:07.145Z,97571.45
2022-12-19T12:31:10.131Z,97571.92
2022-12-19T12:31:38.594Z,97574.86
2022-12-19T12:31:49.209Z,97578.09
2022-12-19T12:35:51.514Z,97576.23
2022-12-19T12:38:48.935Z,97564.54
2022-12-19T12:41:17.166Z,97555.36
2022-12-19T12:44:08.611Z,97551.98
2022-12-19T12:46:40.661Z,97562.50
2022-12-19T12:49:46.408Z,97561.98
2022-12-19T12:52:20.247Z,97559.28
2022-12-19T12:54:50.416Z,97547.90
2022-12-19T12:57:40.048Z,97544.83
2022-12-19T13:00:16.448Z,97544.31
2022-12-19T13:02:55.153Z,97542.44
2022-12-19T13:05:32.166Z,97536.48
2022-12-19T13:08:00.373Z,97530.30
2022-12-19T13:10:31.908Z,97531.96
2022-12-19T13:13:14.277Z,97533.83
2022-12-19T13:15:45.264Z,97530.21
2022-12-19T13:18:30.882Z,97531.52
2022-12-19T13:21:03.866Z,97528.95
2022-12-19T13:23:37.844Z,97529.84
2022-12-19T13:26:21.432Z,97524.35
2022-12-19T13:28:49.536Z,97531.50
2022-12-19T13:31:22.278Z,97528.10
2022-12-19T13:33:56.392Z,97527.05
2022-12-19T13:39:48.075Z,97521.29
2022-12-19T13:40:13.539Z,97509.20
2022-12-19T13:43:26.334Z,97510.63
2022-12-19T13:46:01.041Z,97516.11
2022-12-19T13:48:41.810Z,97511.05
2022-12-19T13:51:11.431Z,97507.84
2022-12-19T13:53:40.959Z,97498.86
2022-12-19T13:56:09.020Z,97496.48
2022-12-19T13:58:44.301Z,97493.10
2022-12-19T14:01:32.719Z,97495.67
2022-12-19T14:04:08.011Z,97488.89
2022-12-19T14:06:47.339Z,97487.52
2022-12-19T14:11:26.273Z,97488.77
2022-12-19T14:13:58.131Z,97488.30
2022-12-19T14:15:51.907Z,97483.40
2022-12-19T14:18:42.407Z,97479.02
2022-12-19T14:22:06.313Z,97480.92
2022-12-19T14:24:18.773Z,97474.86
2022-12-19T14:28:23.280Z,97465.92
2022-12-19T14:30:30.182Z,97468.52
2022-12-19T14:33:44.841Z,97462.40
2022-12-19T14:36:09.593Z,97465.66
2022-12-19T14:39:25.611Z,97459.05
2022-12-19T14:41:48.693Z,97454.46
2022-12-19T14:53:10.811Z,97447.86
2022-12-19T14:53:52.111Z,97452.44
2022-12-19T14:54:09.044Z,97446.19
2022-12-19T14:54:48.108Z,97440.27
2022-12-19T14:56:16.822Z,97444.69
2022-12-19T14:58:53.567Z,97441.64
2022-12-19T15:01:29.868Z,97440.27
2022-12-19T15:04:52.467Z,97434.54
2022-12-19T15:07:07.281Z,97429.15
2022-12-19T15:11:09.294Z,97424.09
2022-12-19T15:14:55.375Z,97419.55
2022-12-19T15:16:27.129Z,97414.15
2022-12-19T15:18:58.462Z,97415.19
2022-12-19T15:21:28.206Z,97417.05
2022-12-19T15:23:57.012Z,97412.98
2022-12-19T15:26:32.754Z,97416.39
2022-12-19T15:29:02.001Z,97411.13
2022-12-19T15:31:35.146Z,97402.30
2022-12-19T15:34:41.878Z,97398.40
2022-12-19T15:37:11.839Z,97404.34
2022-12-19T15:39:41.043Z,97405.70
2022-12-19T15:42:23.066Z,97407.39
2022-12-19T15:44:53.522Z,97401.80
2022-12-19T15:47:31.449Z,97394.86
2022-12-19T15:50:06.809Z,97394.69
2022-12-19T15:52:34.930Z,97398.44
2022-12-19T15:55:03.138Z,97399.11
2022-12-19T15:57:36.096Z,97392.51
2022-12-19T16:00:08.473Z,97386.73
2022-12-19T16:03:20.464Z,97386.73
2022-12-19T16:05:29.610Z,97380.14
2022-12-19T16:07:59.217Z,97376.61
2022-12-19T16:10:27.527Z,97376.45
2022-12-19T16:12:57.968Z,97374.24
2022-12-19T16:15:26.350Z,97374.56
2022-12-19T16:17:55.474Z,97373.20
2022-12-19T16:20:29.231Z,97376.08
2022-12-19T16:22:58.038Z,97374.01
2022-12-19T16:25:33.847Z,97370.95
2022-12-19T16:28:03.865Z,97373.16
2022-12-19T16:30:33.957Z,97368.76
2022-12-19T16:33:02.408Z,97362.79
2022-12-19T16:38:20.099Z,97354.48
2022-12-19T16:40:50.562Z,97350.92
2022-12-19T16:43:32.283Z,97349.56
2022-12-19T16:46:02.051Z,97348.75
2022-12-19T16:48:30.746Z,97341.84
2022-12-19T16:50:59.397Z,97340.34
2022-12-19T16:53:27.766Z,97337.81
2022-12-19T16:55:57.347Z,97338.83
2022-12-19T16:58:28.395Z,97338.83
2022-12-19T17:00:57.043Z,97341.02
2022-12-19T17:03:38.234Z,97339.30
2022-12-19T17:06:06.515Z,97332.01
2022-12-19T17:08:34.638Z,97334.04
2022-12-19T17:11:03.675Z,97328.10
2022-12-19T17:13:31.850Z,97326.05
2022-12-19T17:16:00.713Z,97322.48
2022-12-19T17:18:34.847Z,97320.75
2022-12-19T17:21:03.249Z,97317.09
2022-12-19T17:23:32.769Z,97321.89
2022-12-19T17:26:01.343Z,97327.45
2022-12-19T17:28:30.015Z,97323.53
2022-12-19T17:31:02.926Z,97326.95
2022-12-19T17:33:38.259Z,97322.04
2022-12-19T17:36:11.491Z,97314.69
2022-12-19T17:38:39.630Z,97309.23
2022-12-19T17:41:17.280Z,97309.23
2022-12-19T17:43:45.808Z,97306.30
2022-12-19T17:46:23.009Z,97306.80
2022-12-19T17:48:53.764Z,97307.63
2022-12-19T17:51:23.429Z,97305.39
2022-12-19T17:53:51.724Z,97304.05
2022-12-19T17:56:21.149Z,97300.16
2022-12-19T17:58:49.615Z,97300.44
2022-12-19T18:01:23.244Z,97297.69
2022-12-19T18:03:53.333Z,97294.08
2022-12-19T18:06:21.683Z,97286.11
2022-12-19T18:08:49.874Z,97285.77
2022-12-19T18:11:19.741Z,97280.86
2022-12-19T18:13:48.867Z,97280.02
2022-12-19T18:16:20.881Z,97280.55
2022-12-19T18:18:49.842Z,97283.36
2022-12-19T18:21:21.313Z,97284.62
2022-12-19T18:23:49.616Z,97279.92
2022-12-19T18:26:18.157Z,97277.45
2022-12-19T18:28:46.279Z,97277.67
2022-12-19T18:31:25.887Z,97277.55
2022-12-19T18:33:55.394Z,97269.95
2022-12-19T18:36:28.793Z,97268.95
2022-12-19T18:38:58.269Z,97267.59
2022-12-19T18:41:26.764Z,97261.80
2022-12-19T18:43:54.965Z,97260.73
2022-12-19T18:46:27.718Z,97256.48
2022-12-19T18:48:56.008Z,97252.02
2022-12-19T18:51:24.298Z,97253.17
2022-12-19T18:53:52.742Z,97246.17
2022-12-19T18:56:20.824Z,97242.58
2022-12-19T18:58:48.794Z,97242.55
2022-12-19T19:01:20.526Z,97243.36
2022-12-19T19:03:57.318Z,97241.98
2022-12-19T19:06:28.993Z,97238.20
2022-12-19T19:08:58.552Z,97229.86
2022-12-19T19:11:52.136Z,97228.83
2022-12-19T19:14:20.169Z,97230.67
2022-12-19T19:16:49.276Z,97229.80
2022-12-19T19:19:18.899Z,97225.36
2022-12-19T19:21:47.335Z,97220.09
2022-12-19T19:24:19.346Z,97216.13
2022-12-19T19:26:47.928Z,97218.28
2022-12-19T19:29:19.141Z,97212.50
2022-12-19T19:31:50.283Z,97208.59
2022-12-19T19:34:23.472Z,97205.69
2022-12-19T19:36:56.136Z,97205.17
2022-12-19T19:39:25.077Z,97207.70
2022-12-19T19:41:54.017Z,97208.05
2022-12-19T19:44:22.393Z,97213.45
2022-12-19T19:46:50.760Z,97210.39
2022-12-19T19:49:21.282Z,97212.22
2022-12-19T19:51:49.808Z,97218.13
2022-12-19T19:54:18.361Z,97216.06
2022-12-19T19:56:46.448Z,97220.12
2022-12-19T19:59:14.647Z,97226.06
2022-12-19T20:01:43.336Z,97224.67
2022-12-19T20:04:11.529Z,97218.70
2022-12-19T20:06:39.692Z,97211.87
2022-12-19T20:09:07.714Z,97208.59
2022-12-19T20:11:35.864Z,97205.62
2022-12-19T20:14:04.653Z,97205.39
2022-12-19T20:16:33.826Z,97198.89
2022-12-19T20:19:02.050Z,97198.84
2022-12-19T20:21:31.496Z,97198.97
2022-12-19T20:24:00.054Z,97195.86
2022-12-19T20:26:28.243Z,97191.05
2022-12-19T20:28:56.373Z,97185.95
2022-12-19T20:31:24.976Z,97182.48
2022-12-19T20:33:56.954Z,97178.16
2022-12-19T20:36:25.377Z,97182.54
2022-12-19T20:38:53.981Z,97173.85
2022-12-19T20:41:22.440Z,97171.57
2022-12-19T20:43:52.417Z,97168.11
2022-12-19T20:46:21.579Z,97164.85
2022-12-19T20:48:50.585Z,97162.10
2022-12-19T20:51:20.832Z,97158.98
2022-12-19T20:53:51.655Z,97156.41
2022-12-19T20:56:23.190Z,97158.05
2022-12-19T20:58:52.044Z,97161.40
2022-12-19T21:01:23.230Z,97163.04
2022-12-19T21:03:52.829Z,97161.30
2022-12-19T21:06:22.848Z,97159.69
2022-12-19T21:08:50.959Z,97162.16
2022-12-19T21:11:19.146Z,97155.94
2022-12-19T21:13:47.337Z,97151.62
2022-12-19T21:16:23.129Z,97151.52
2022-12-19T21:18:51.687Z,97152.98
2022-12-19T21:21:24.652Z,97145.91
2022-12-19T21:23:54.115Z,97146.86
2022-12-19T21:26:24.363Z,97138.49
2022-12-19T21:28:53.137Z,97137.61
2022-12-19T21:31:25.351Z,97134.84
2022-12-19T21:33:55.513Z,97132.40
2022-12-19T21:36:25.068Z,97128.08
2022-12-19T21:38:55.967Z,97124.83
2022-12-19T21:41:24.259Z,97121.91
2022-12-19T21:43:54.291Z,97120.53
2022-12-19T21:46:25.118Z,97119.98
2022-12-19T21:48:55.387Z,97116.73
2022-12-19T21:51:26.721Z,97116.02
2022-12-19T21:54:02.268Z,97111.71
2022-12-19T21:56:34.449Z,97106.87
2022-12-19T21:59:10.101Z,97103.73
2022-12-19T22:01:38.830Z,97101.48
2022-12-19T22:04:21.108Z,97095.83
2022-12-19T22:06:51.115Z,97095.27
2022-12-19T22:09:22.726Z,97095.61
2022-12-19T22:11:51.839Z,97097.30
2022-12-19T22:14:20.022Z,97095.41
2022-12-19T22:16:48.275Z,97089.94
2022-12-19T22:19:18.437Z,97088.88
2022-12-19T22:21:47.880Z,97082.69
2022-12-19T22:24:16.968Z,97080.64
2022-12-19T22:26:45.221Z,97084.03
2022-12-19T22:29:17.465Z,97082.97
2022-12-19T22:31:46.170Z,97073.72
2022-12-19T22:34:16.746Z,97069.91
2022-12-19T22:36:45.398Z,97070.21
2022-12-19T22:39:16.245Z,97070.67
2022-12-19T22:41:45.215Z,97071.13
2022-12-19T22:44:19.534Z,97072.30
2022-12-19T22:46:48.591Z,97066.15
2022-12-19T22:49:17.297Z,97064.77
2022-12-19T22:51:45.584Z,97061.34
2022-12-19T22:54:14.036Z,97064.20
2022-12-19T22:56:42.770Z,97063.50
2022-12-19T22:59:12.675Z,97063.48
2022-12-19T23:01:43.693Z,97060.73
2022-12-19T23:04:15.124Z,97063.10
2022-12-19T23:06:44.224Z,97059.85
2022-12-19T23:09:15.037Z,97058.95
2022-12-19T23:11:45.190Z,97056.37
2022-12-19T23:14:16.518Z,97048.81
2022-12-19T23:16:45.151Z,97043.69
2022-12-19T23:19:15.503Z,97042.14
2022-12-19T23:21:43.760Z,97040.24
2022-12-19T23:24:12.471Z,97041.89
2022-12-19T23:26:41.262Z,97037.39
2022-12-19T23:29:12.356Z,97031.21
2022-12-19T23:31:42.739Z,97026.95
2022-12-19T23:34:11.209Z,97020.10
2022-12-19T23:39:27.549Z,97017.70
2022-12-19T23:41:55.621Z,97019.90
2022-12-19T23:44:23.829Z,97017.80
2022-12-19T23:46:51.892Z,97020.16
2022-12-19T23:49:19.974Z,97023.00
2022-12-19T23:51:48.040Z,97017.19
2022-12-19T23:54:16.185Z,97013.55
2022-12-19T23:56:44.378Z,97010.95
2022-12-19T23:59:12.515Z,97010.63
